sensor_id;sensor_type;location;lat;lon;timestamp;pressure;altitude;pressure_sealevel;temperature;humidity
1832;BME280;1680;48.106;11.708;2024-01-06T00:02:26;94265.34;;;6.50;100.00
1832;BME280;1680;48.106;11.708;2024-01-06T00:04:54;94272.34;;;6.50;100.00
1832;BME280;1680;48.106;11.708;2024-01-06T00:07:21;94266.44;;;6.54;100.00
1832;BME280;1680;48.106;11.708;2024-01-06T00:09:50;94271.88;;;6.41;100.00
1832;BME280;1680;48.106;11.708;2024-01-06T00:12:18;94263.75;;;6.49;100.00
1832;BME280;1680;48.106;11.708;2024-01-06T00:14:45;94255.03;;;6.44;100.00
1832;BME280;1680;48.106;11.708;2024-01-06T00:17:12;94276.84;;;6.54;100.00
1832;BME280;1680;48.106;11.708;2024-01-06T00:19:39;94245.97;;;6.46;100.00
1832;BME280;1680;48.106;11.708;2024-01-06T00:22:07;94268.34;;;6.70;100.00
1832;BME280;1680;48.106;11.708;2024-01-06T00:24:35;94263.59;;;6.67;100.00
1832;BME280;1680;48.106;11.708;2024-01-06T00:27:03;94254.31;;;6.60;100.00
1832;BME280;1680;48.106;11.708;2024-01-06T00:29:30;94256.69;;;6.61;100.00
1832;BME280;1680;48.106;11.708;2024-01-06T00:31:57;94259.44;;;6.55;100.00
1832;BME280;1680;48.106;11.708;2024-01-06T00:34:25;94255.38;;;6.47;100.00
1832;BME280;1680;48.106;11.708;2024-01-06T00:36:52;94260.13;;;6.50;100.00
1832;BME280;1680;48.106;11.708;2024-01-06T00:39:20;94264.75;;;6.48;100.00
1832;BME280;1680;48.106;11.708;2024-01-06T00:41:47;94253.34;;;6.49;100.00
1832;BME280;1680;48.106;11.708;2024-01-06T00:44:16;94260.56;;;6.47;100.00
1832;BME280;1680;48.106;11.708;2024-01-06T00:46:43;94252.19;;;6.45;100.00
1832;BME280;1680;48.106;11.708;2024-01-06T00:49:10;94260.25;;;6.44;100.00
1832;BME280;1680;48.106;11.708;2024-01-06T00:51:37;94255.25;;;6.42;100.00
1832;BME280;1680;48.106;11.708;2024-01-06T00:54:04;94260.25;;;6.44;100.00
1832;BME280;1680;48.106;11.708;2024-01-06T00:56:32;94210.78;;;6.09;100.00
1832;BME280;1680;48.106;11.708;2024-01-06T00:58:59;94249.84;;;6.44;100.00
1832;BME280;1680;48.106;11.708;2024-01-06T01:01:27;94244.25;;;6.40;100.00
1832;BME280;1680;48.106;11.708;2024-01-06T01:03:54;94255.25;;;6.42;100.00
1832;BME280;1680;48.106;11.708;2024-01-06T01:06:22;94252.31;;;6.39;100.00
1832;BME280;1680;48.106;11.708;2024-01-06T01:08:49;94257.06;;;6.42;100.00
1832;BME280;1680;48.106;11.708;2024-01-06T01:11:16;94250.50;;;6.39;100.00
1832;BME280;1680;48.106;11.708;2024-01-06T01:13:43;94254.69;;;6.40;100.00
1832;BME280;1680;48.106;11.708;2024-01-06T01:16:10;94260.91;;;6.39;100.00
1832;BME280;1680;48.106;11.708;2024-01-06T01:18:39;94263.75;;;6.38;100.00
1832;BME280;1680;48.106;11.708;2024-01-06T01:21:06;94263.75;;;6.38;100.00
1832;BME280;1680;48.106;11.708;2024-01-06T01:23:33;94261.38;;;6.36;100.00
1832;BME280;1680;48.106;11.708;2024-01-06T01:26:00;94262.41;;;6.35;100.00
1832;BME280;1680;48.106;11.708;2024-01-06T01:28:30;94256.63;;;6.33;100.00
1832;BME280;1680;48.106;11.708;2024-01-06T01:30:57;94260.25;;;6.32;100.00
1832;BME280;1680;48.106;11.708;2024-01-06T01:33:25;94259.44;;;6.32;100.00
1832;BME280;1680;48.106;11.708;2024-01-06T01:35:53;94265.44;;;6.32;100.00
1832;BME280;1680;48.106;11.708;2024-01-06T01:38:20;94267.25;;;6.32;100.00
1832;BME280;1680;48.106;11.708;2024-01-06T01:40:47;94269.63;;;6.33;100.00
1832;BME280;1680;48.106;11.708;2024-01-06T01:43:17;94266.47;;;6.31;100.00
1832;BME280;1680;48.106;11.708;2024-01-06T01:45:45;94265.66;;;6.31;100.00
1832;BME280;1680;48.106;11.708;2024-01-06T01:48:15;94264.88;;;6.30;100.00
1832;BME280;1680;48.106;11.708;2024-01-06T01:50:42;94282.09;;;6.31;100.00
1832;BME280;1680;48.106;11.708;2024-01-06T01:53:12;94281.63;;;6.34;100.00
1832;BME280;1680;48.106;11.708;2024-01-06T01:55:40;94268.06;;;6.32;100.00
1832;BME280;1680;48.106;11.708;2024-01-06T01:58:10;94278.22;;;6.34;100.00
1832;BME280;1680;48.106;11.708;2024-01-06T02:00:39;94276.06;;;6.31;100.00
1832;BME280;1680;48.106;11.708;2024-01-06T02:03:07;94279.94;;;6.28;100.00
1832;BME280;1680;48.106;11.708;2024-01-06T02:05:36;94270.97;;;6.24;100.00
1832;BME280;1680;48.106;11.708;2024-01-06T02:08:03;94279.81;;;6.23;100.00
1832;BME280;1680;48.106;11.708;2024-01-06T02:10:32;94281.63;;;6.23;100.00
1832;BME280;1680;48.106;11.708;2024-01-06T02:13:07;94284.00;;;6.24;100.00
1832;BME280;1680;48.106;11.708;2024-01-06T02:15:35;94274.59;;;6.23;100.00
1832;BME280;1680;48.106;11.708;2024-01-06T02:18:02;94282.19;;;6.25;100.00
1832;BME280;1680;48.106;11.708;2024-01-06T02:20:33;94280.38;;;6.25;100.00
1832;BME280;1680;48.106;11.708;2024-01-06T02:23:02;94277.19;;;6.23;100.00
1832;BME280;1680;48.106;11.708;2024-01-06T02:25:29;94282.06;;;6.20;100.00
1832;BME280;1680;48.106;11.708;2024-01-06T02:27:56;94275.72;;;6.16;100.00
1832;BME280;1680;48.106;11.708;2024-01-06T02:30:23;94277.09;;;6.18;100.00
1832;BME280;1680;48.106;11.708;2024-01-06T02:32:50;94279.13;;;6.16;100.00
1832;BME280;1680;48.106;11.708;2024-01-06T02:35:18;94270.75;;;6.14;100.00
1832;BME280;1680;48.106;11.708;2024-01-06T02:37:45;94281.94;;;6.15;100.00
1832;BME280;1680;48.106;11.708;2024-01-06T02:40:14;94287.97;;;6.15;100.00
1832;BME280;1680;48.106;11.708;2024-01-06T02:42:41;94264.53;;;6.04;100.00
1832;BME280;1680;48.106;11.708;2024-01-06T02:45:09;94287.16;;;6.15;100.00
1832;BME280;1680;48.106;11.708;2024-01-06T02:47:36;94276.97;;;6.13;100.00
1832;BME280;1680;48.106;11.708;2024-01-06T02:50:04;94277.22;;;6.12;100.00
1832;BME280;1680;48.106;11.708;2024-01-06T02:52:31;94286.63;;;6.13;100.00
1832;BME280;1680;48.106;11.708;2024-01-06T02:54:58;94287.84;;;6.10;100.00
1832;BME280;1680;48.106;11.708;2024-01-06T02:57:27;94295.06;;;6.08;100.00
1832;BME280;1680;48.106;11.708;2024-01-06T02:59:54;94295.31;;;6.07;100.00
1832;BME280;1680;48.106;11.708;2024-01-06T03:02:21;94297.00;;;6.01;100.00
1832;BME280;1680;48.106;11.708;2024-01-06T03:04:49;94303.78;;;6.02;100.00
1832;BME280;1680;48.106;11.708;2024-01-06T03:07:16;94294.59;;;6.00;100.00
1832;BME280;1680;48.106;11.708;2024-01-06T03:09:43;94294.59;;;6.00;100.00
1832;BME280;1680;48.106;11.708;2024-01-06T03:12:10;94291.09;;;5.94;100.00
1832;BME280;1680;48.106;11.708;2024-01-06T03:14:39;94278.31;;;5.93;100.00
1832;BME280;1680;48.106;11.708;2024-01-06T03:17:06;94298.25;;;5.99;100.00
1832;BME280;1680;48.106;11.708;2024-01-06T03:19:36;94282.38;;;5.89;100.00
1832;BME280;1680;48.106;11.708;2024-01-06T03:22:03;94299.81;;;6.00;100.00
1832;BME280;1680;48.106;11.708;2024-01-06T03:24:31;94304.38;;;6.04;100.00
1832;BME280;1680;48.106;11.708;2024-01-06T03:26:58;94298.00;;;6.00;100.00
1832;BME280;1680;48.106;11.708;2024-01-06T03:29:25;94304.09;;;5.94;100.00
1832;BME280;1680;48.106;11.708;2024-01-06T03:31:53;94300.72;;;5.94;100.00
1832;BME280;1680;48.106;11.708;2024-01-06T03:34:20;94306.81;;;5.88;100.00
1832;BME280;1680;48.106;11.708;2024-01-06T03:36:48;94309.19;;;5.89;100.00
1832;BME280;1680;48.106;11.708;2024-01-06T03:39:15;94293.34;;;5.79;100.00
1832;BME280;1680;48.106;11.708;2024-01-06T03:41:43;94303.63;;;5.86;100.00
1832;BME280;1680;48.106;11.708;2024-01-06T03:44:10;94299.69;;;5.83;100.00
1832;BME280;1680;48.106;11.708;2024-01-06T03:46:38;94292.44;;;5.85;100.00
1832;BME280;1680;48.106;11.708;2024-01-06T03:49:07;94306.81;;;5.88;100.00
1832;BME280;1680;48.106;11.708;2024-01-06T03:51:34;94285.38;;;5.74;100.00
1832;BME280;1680;48.106;11.708;2024-01-06T03:54:01;94309.94;;;5.78;100.00
1832;BME280;1680;48.106;11.708;2024-01-06T03:56:28;94307.16;;;5.80;100.00
1832;BME280;1680;48.106;11.708;2024-01-06T03:58:55;94308.50;;;5.82;100.00
1832;BME280;1680;48.106;11.708;2024-01-06T04:01:23;94312.25;;;5.86;100.00
1832;BME280;1680;48.106;11.708;2024-01-06T04:03:50;94309.31;;;5.83;100.00
1832;BME280;1680;48.106;11.708;2024-01-06T04:06:19;94323.75;;;5.79;100.00
1832;BME280;1680;48.106;11.708;2024-01-06T04:08:46;94314.13;;;5.79;100.00
1832;BME280;1680;48.106;11.708;2024-01-06T04:11:13;94326.00;;;5.75;100.00
1832;BME280;1680;48.106;11.708;2024-01-06T04:13:42;94315.59;;;5.75;100.00
1832;BME280;1680;48.106;11.708;2024-01-06T04:16:09;94320.66;;;5.71;100.00
1832;BME280;1680;48.106;11.708;2024-01-06T04:18:38;94329.47;;;5.70;100.00
1832;BME280;1680;48.106;11.708;2024-01-06T04:21:05;94333.06;;;5.69;100.00
1832;BME280;1680;48.106;11.708;2024-01-06T04:23:35;94334.66;;;5.70;100.00
1832;BME280;1680;48.106;11.708;2024-01-06T04:26:02;94336.25;;;5.71;100.00
1832;BME280;1680;48.106;11.708;2024-01-06T04:28:30;94344.06;;;5.71;100.00
1832;BME280;1680;48.106;11.708;2024-01-06T04:30:57;94337.59;;;5.73;100.00
1832;BME280;1680;48.106;11.708;2024-01-06T04:33:24;94343.19;;;5.76;100.00
1832;BME280;1680;48.106;11.708;2024-01-06T04:35:51;94342.34;;;5.94;100.00
1832;BME280;1680;48.106;11.708;2024-01-06T04:38:18;94351.78;;;5.77;100.00
1832;BME280;1680;48.106;11.708;2024-01-06T04:40:47;94341.53;;;5.82;100.00
1832;BME280;1680;48.106;11.708;2024-01-06T04:43:14;94335.38;;;5.76;100.00
1832;BME280;1680;48.106;11.708;2024-01-06T04:45:41;94350.19;;;5.76;100.00
1832;BME280;1680;48.106;11.708;2024-01-06T04:48:08;94349.94;;;5.66;100.00
1832;BME280;1680;48.106;11.708;2024-01-06T04:50:35;94335.88;;;5.56;100.00
1832;BME280;1680;48.106;11.708;2024-01-06T04:53:03;94355.69;;;5.97;100.00
1832;BME280;1680;48.106;11.708;2024-01-06T04:55:30;94352.84;;;5.87;100.00
1832;BME280;1680;48.106;11.708;2024-01-06T04:57:59;94361.59;;;5.75;100.00
1832;BME280;1680;48.106;11.708;2024-01-06T05:00:26;94345.50;;;5.67;100.00
1832;BME280;1680;48.106;11.708;2024-01-06T05:02:54;94370.38;;;5.92;100.00
1832;BME280;1680;48.106;11.708;2024-01-06T05:05:21;94365.97;;;5.92;100.00
1832;BME280;1680;48.106;11.708;2024-01-06T05:07:49;94368.63;;;5.74;100.00
1832;BME280;1680;48.106;11.708;2024-01-06T05:10:16;94366.53;;;5.83;100.00
1832;BME280;1680;48.106;11.708;2024-01-06T05:12:43;94368.47;;;5.87;100.00
1832;BME280;1680;48.106;11.708;2024-01-06T05:15:12;94374.53;;;6.11;100.00
1832;BME280;1680;48.106;11.708;2024-01-06T05:17:39;94373.22;;;5.90;100.00
1832;BME280;1680;48.106;11.708;2024-01-06T05:20:07;94382.53;;;5.98;100.00
1832;BME280;1680;48.106;11.708;2024-01-06T05:22:34;94379.00;;;6.04;100.00
1832;BME280;1680;48.106;11.708;2024-01-06T05:25:01;94388.38;;;5.93;100.00
1832;BME280;1680;48.106;11.708;2024-01-06T05:27:29;94387.34;;;5.94;100.00
1832;BME280;1680;48.106;11.708;2024-01-06T05:29:56;94399.25;;;5.90;100.00
1832;BME280;1680;48.106;11.708;2024-01-06T05:32:24;94399.09;;;5.68;100.00
1832;BME280;1680;48.106;11.708;2024-01-06T05:34:52;94401.50;;;5.69;100.00
1832;BME280;1680;48.106;11.708;2024-01-06T05:37:20;94401.97;;;5.48;100.00
1832;BME280;1680;48.106;11.708;2024-01-06T05:39:47;94396.84;;;5.42;100.00
1832;BME280;1680;48.106;11.708;2024-01-06T05:42:14;94399.63;;;5.40;100.00
1832;BME280;1680;48.106;11.708;2024-01-06T05:44:41;94386.44;;;5.24;100.00
1832;BME280;1680;48.106;11.708;2024-01-06T05:47:08;94408.31;;;5.52;100.00
1832;BME280;1680;48.106;11.708;2024-01-06T05:49:41;94415.72;;;5.49;100.00
1832;BME280;1680;48.106;11.708;2024-01-06T05:52:09;94425.88;;;5.39;100.00
1832;BME280;1680;48.106;11.708;2024-01-06T05:54:36;94427.03;;;5.43;100.00
1832;BME280;1680;48.106;11.708;2024-01-06T05:57:06;94412.72;;;5.34;100.00
1832;BME280;1680;48.106;11.708;2024-01-06T05:59:36;94429.63;;;5.25;100.00
1832;BME280;1680;48.106;11.708;2024-01-06T06:02:04;94439.25;;;5.24;100.00
1832;BME280;1680;48.106;11.708;2024-01-06T06:04:31;94431.50;;;5.36;100.00
1832;BME280;1680;48.106;11.708;2024-01-06T06:07:00;94435.09;;;5.35;100.00
1832;BME280;1680;48.106;11.708;2024-01-06T06:09:27;94439.28;;;5.54;100.00
1832;BME280;1680;48.106;11.708;2024-01-06T06:11:55;94457.22;;;5.44;100.00
1832;BME280;1680;48.106;11.708;2024-01-06T06:14:22;94459.66;;;5.57;100.00
1832;BME280;1680;48.106;11.708;2024-01-06T06:16:49;94458.34;;;5.66;100.00
1832;BME280;1680;48.106;11.708;2024-01-06T06:19:17;94464.94;;;5.50;100.00
1832;BME280;1680;48.106;11.708;2024-01-06T06:21:44;94465.22;;;5.60;100.00
1832;BME280;1680;48.106;11.708;2024-01-06T06:24:12;94469.31;;;5.50;100.00
1832;BME280;1680;48.106;11.708;2024-01-06T06:26:40;94466.00;;;5.43;100.00
1832;BME280;1680;48.106;11.708;2024-01-06T06:29:07;94429.44;;;5.02;100.00
1832;BME280;1680;48.106;11.708;2024-01-06T06:31:34;94460.66;;;5.20;100.00
1832;BME280;1680;48.106;11.708;2024-01-06T06:34:01;94468.91;;;5.17;100.00
1832;BME280;1680;48.106;11.708;2024-01-06T06:36:28;94476.56;;;5.30;100.00
1832;BME280;1680;48.106;11.708;2024-01-06T06:38:55;94472.50;;;5.34;100.00
1832;BME280;1680;48.106;11.708;2024-01-06T06:41:25;94467.44;;;5.21;100.00
1832;BME280;1680;48.106;11.708;2024-01-06T06:43:52;94492.00;;;5.25;100.00
1832;BME280;1680;48.106;11.708;2024-01-06T06:46:20;94495.03;;;5.58;100.00
1832;BME280;1680;48.106;11.708;2024-01-06T06:48:47;94494.44;;;5.38;100.00
1832;BME280;1680;48.106;11.708;2024-01-06T06:51:14;94488.66;;;5.36;100.00
1832;BME280;1680;48.106;11.708;2024-01-06T06:53:42;94468.16;;;5.10;100.00
1832;BME280;1680;48.106;11.708;2024-01-06T06:56:09;94490.69;;;5.34;100.00
1832;BME280;1680;48.106;11.708;2024-01-06T06:58:38;94476.81;;;5.22;100.00
1832;BME280;1680;48.106;11.708;2024-01-06T07:01:05;94487.16;;;5.46;100.00
1832;BME280;1680;48.106;11.708;2024-01-06T07:03:32;94498.22;;;5.42;100.00
1832;BME280;1680;48.106;11.708;2024-01-06T07:05:59;94478.63;;;5.21;100.00
1832;BME280;1680;48.106;11.708;2024-01-06T07:08:27;94455.06;;;4.98;100.00
1832;BME280;1680;48.106;11.708;2024-01-06T07:10:54;94501.03;;;5.22;100.00
1832;BME280;1680;48.106;11.708;2024-01-06T07:13:21;94506.41;;;5.21;100.00
1832;BME280;1680;48.106;11.708;2024-01-06T07:15:50;94506.16;;;5.29;100.00
1832;BME280;1680;48.106;11.708;2024-01-06T07:18:17;94482.63;;;5.42;100.00
1832;BME280;1680;48.106;11.708;2024-01-06T07:20:48;94510.56;;;5.46;100.00
1832;BME280;1680;48.106;11.708;2024-01-06T07:23:15;94502.38;;;5.25;100.00
1832;BME280;1680;48.106;11.708;2024-01-06T07:25:42;94514.16;;;5.27;100.00
1832;BME280;1680;48.106;11.708;2024-01-06T07:28:09;94484.59;;;5.04;100.00
1832;BME280;1680;48.106;11.708;2024-01-06T07:30:38;94516.56;;;5.47;100.00
1832;BME280;1680;48.106;11.708;2024-01-06T07:33:06;94523.66;;;5.58;100.00
1832;BME280;1680;48.106;11.708;2024-01-06T07:35:34;94521.16;;;5.27;100.00
1832;BME280;1680;48.106;11.708;2024-01-06T07:38:01;94518.34;;;5.28;100.00
1832;BME280;1680;48.106;11.708;2024-01-06T07:40:28;94502.16;;;5.26;100.00
1832;BME280;1680;48.106;11.708;2024-01-06T07:42:56;94531.03;;;5.61;100.00
1832;BME280;1680;48.106;11.708;2024-01-06T07:45:23;94531.41;;;5.22;100.00
1832;BME280;1680;48.106;11.708;2024-01-06T07:47:50;94532.47;;;5.14;100.00
1832;BME280;1680;48.106;11.708;2024-01-06T07:50:19;94522.72;;;5.10;100.00
1832;BME280;1680;48.106;11.708;2024-01-06T07:52:46;94549.97;;;5.43;100.00
1832;BME280;1680;48.106;11.708;2024-01-06T07:55:13;94560.34;;;5.25;100.00
1832;BME280;1680;48.106;11.708;2024-01-06T07:57:41;94549.59;;;5.22;100.00
1832;BME280;1680;48.106;11.708;2024-01-06T08:00:11;94553.34;;;5.01;100.00
1832;BME280;1680;48.106;11.708;2024-01-06T08:02:39;94531.22;;;4.99;100.00
1832;BME280;1680;48.106;11.708;2024-01-06T08:05:09;94544.97;;;5.24;100.00
1832;BME280;1680;48.106;11.708;2024-01-06T08:07:38;94547.09;;;5.33;100.00
1832;BME280;1680;48.106;11.708;2024-01-06T08:10:06;94563.22;;;5.42;100.00
1832;BME280;1680;48.106;11.708;2024-01-06T08:12:34;94542.47;;;5.35;100.00
1832;BME280;1680;48.106;11.708;2024-01-06T08:15:01;94568.19;;;5.43;100.00
1832;BME280;1680;48.106;11.708;2024-01-06T08:17:29;94577.47;;;5.33;100.00
1832;BME280;1680;48.106;11.708;2024-01-06T08:19:57;94555.31;;;5.06;100.00
1832;BME280;1680;48.106;11.708;2024-01-06T08:22:25;94570.75;;;5.25;100.00
1832;BME280;1680;48.106;11.708;2024-01-06T08:24:53;94562.84;;;5.14;100.00
1832;BME280;1680;48.106;11.708;2024-01-06T08:27:20;94580.03;;;5.15;100.00
1832;BME280;1680;48.106;11.708;2024-01-06T08:29:49;94574.78;;;5.21;100.00
1832;BME280;1680;48.106;11.708;2024-01-06T08:32:16;94577.34;;;5.28;100.00
1832;BME280;1680;48.106;11.708;2024-01-06T08:34:43;94567.97;;;5.45;100.00
1832;BME280;1680;48.106;11.708;2024-01-06T08:37:10;94577.25;;;5.59;100.00
1832;BME280;1680;48.106;11.708;2024-01-06T08:39:38;94583.66;;;5.56;100.00
1832;BME280;1680;48.106;11.708;2024-01-06T08:42:07;94577.09;;;5.54;100.00
1832;BME280;1680;48.106;11.708;2024-01-06T08:44:35;94583.34;;;5.46;100.00
1832;BME280;1680;48.106;11.708;2024-01-06T08:47:02;94586.50;;;5.30;100.00
1832;BME280;1680;48.106;11.708;2024-01-06T08:49:30;94525.53;;;4.84;100.00
1832;BME280;1680;48.106;11.708;2024-01-06T08:51:58;94592.69;;;5.29;100.00
1832;BME280;1680;48.106;11.708;2024-01-06T08:54:25;94593.94;;;5.27;100.00
1832;BME280;1680;48.106;11.708;2024-01-06T08:56:52;94592.03;;;5.16;100.00
1832;BME280;1680;48.106;11.708;2024-01-06T08:59:20;94598.97;;;5.22;100.00
1832;BME280;1680;48.106;11.708;2024-01-06T09:01:48;94591.75;;;5.24;100.00
1832;BME280;1680;48.106;11.708;2024-01-06T09:04:15;94597.66;;;5.13;100.00
1832;BME280;1680;48.106;11.708;2024-01-06T09:06:42;94601.13;;;5.25;100.00
1832;BME280;1680;48.106;11.708;2024-01-06T09:09:10;94601.13;;;5.25;100.00
1832;BME280;1680;48.106;11.708;2024-01-06T09:11:38;94606.69;;;5.28;100.00
1832;BME280;1680;48.106;11.708;2024-01-06T09:14:05;94594.94;;;5.50;100.00
1832;BME280;1680;48.106;11.708;2024-01-06T09:16:33;94583.13;;;5.48;100.00
1832;BME280;1680;48.106;11.708;2024-01-06T09:19:00;94605.06;;;5.76;100.00
1832;BME280;1680;48.106;11.708;2024-01-06T09:21:28;94589.94;;;5.67;100.00
1832;BME280;1680;48.106;11.708;2024-01-06T09:23:56;94611.66;;;5.78;100.00
1832;BME280;1680;48.106;11.708;2024-01-06T09:26:23;94568.38;;;5.24;100.00
1832;BME280;1680;48.106;11.708;2024-01-06T09:28:51;94585.78;;;5.23;100.00
1832;BME280;1680;48.106;11.708;2024-01-06T09:31:19;94604.22;;;5.40;100.00
1832;BME280;1680;48.106;11.708;2024-01-06T09:33:47;94613.78;;;5.46;100.00
1832;BME280;1680;48.106;11.708;2024-01-06T09:36:15;94611.84;;;5.35;100.00
1832;BME280;1680;48.106;11.708;2024-01-06T09:38:43;94617.91;;;5.29;100.00
1832;BME280;1680;48.106;11.708;2024-01-06T09:41:10;94614.97;;;5.19;100.00
1832;BME280;1680;48.106;11.708;2024-01-06T09:43:37;94621.03;;;5.37;100.00
1832;BME280;1680;48.106;11.708;2024-01-06T09:46:09;94603.31;;;5.28;100.00
1832;BME280;1680;48.106;11.708;2024-01-06T09:48:40;94626.84;;;5.57;100.00
1832;BME280;1680;48.106;11.708;2024-01-06T09:51:12;94616.09;;;5.29;100.00
1832;BME280;1680;48.106;11.708;2024-01-06T09:53:43;94616.25;;;5.34;100.00
1832;BME280;1680;48.106;11.708;2024-01-06T09:56:14;94631.91;;;5.70;100.00
1832;BME280;1680;48.106;11.708;2024-01-06T09:58:42;94641.38;;;5.47;100.00
1832;BME280;1680;48.106;11.708;2024-01-06T10:01:11;94620.13;;;5.50;100.00
1832;BME280;1680;48.106;11.708;2024-01-06T10:03:39;94621.59;;;5.64;100.00
1832;BME280;1680;48.106;11.708;2024-01-06T10:06:06;94619.44;;;5.61;100.00
1832;BME280;1680;48.106;11.708;2024-01-06T10:08:36;94624.09;;;5.76;100.00
1832;BME280;1680;48.106;11.708;2024-01-06T10:11:06;94611.78;;;5.41;100.00
1832;BME280;1680;48.106;11.708;2024-01-06T10:13:34;94635.41;;;5.40;100.00
1832;BME280;1680;48.106;11.708;2024-01-06T10:16:03;94629.25;;;5.59;100.00
1832;BME280;1680;48.106;11.708;2024-01-06T10:18:30;94619.69;;;5.53;100.00
1832;BME280;1680;48.106;11.708;2024-01-06T10:20:58;94625.38;;;5.43;100.00
1832;BME280;1680;48.106;11.708;2024-01-06T10:23:26;94622.13;;;5.48;100.00
1832;BME280;1680;48.106;11.708;2024-01-06T10:25:56;94593.69;;;5.53;100.00
1832;BME280;1680;48.106;11.708;2024-01-06T10:28:23;94597.63;;;5.62;100.00
1832;BME280;1680;48.106;11.708;2024-01-06T10:30:52;94572.28;;;5.33;100.00
1832;BME280;1680;48.106;11.708;2024-01-06T10:33:19;94607.69;;;5.52;100.00
1832;BME280;1680;48.106;11.708;2024-01-06T10:35:46;94607.28;;;5.55;100.00
1832;BME280;1680;48.106;11.708;2024-01-06T10:38:14;94605.69;;;5.54;100.00
1832;BME280;1680;48.106;11.708;2024-01-06T10:40:57;94607.81;;;5.39;100.00
1832;BME280;1680;48.106;11.708;2024-01-06T10:43:26;94618.09;;;5.52;100.00
1832;BME280;1680;48.106;11.708;2024-01-06T10:45:56;94605.19;;;5.63;100.00
1832;BME280;1680;48.106;11.708;2024-01-06T10:48:25;94612.47;;;5.79;100.00
1832;BME280;1680;48.106;11.708;2024-01-06T10:50:53;94602.44;;;5.58;100.00
1832;BME280;1680;48.106;11.708;2024-01-06T10:53:21;94616.59;;;5.86;100.00
1832;BME280;1680;48.106;11.708;2024-01-06T10:55:49;94596.03;;;5.61;100.00
1832;BME280;1680;48.106;11.708;2024-01-06T10:58:19;94592.19;;;5.63;100.00
1832;BME280;1680;48.106;11.708;2024-01-06T11:00:47;94593.28;;;5.56;100.00
1832;BME280;1680;48.106;11.708;2024-01-06T11:03:14;94589.44;;;5.58;100.00
1832;BME280;1680;48.106;11.708;2024-01-06T11:05:42;94590.38;;;5.64;100.00
1832;BME280;1680;48.106;11.708;2024-01-06T11:08:10;94597.81;;;5.60;100.00
1832;BME280;1680;48.106;11.708;2024-01-06T11:10:39;94593.88;;;5.75;100.00
1832;BME280;1680;48.106;11.708;2024-01-06T11:13:11;94599.94;;;5.70;100.00
1832;BME280;1680;48.106;11.708;2024-01-06T11:15:44;94589.78;;;5.44;100.00
1832;BME280;1680;48.106;11.708;2024-01-06T11:18:32;94598.75;;;5.66;100.00
1832;BME280;1680;48.106;11.708;2024-01-06T11:21:16;94597.16;;;5.47;100.00
1832;BME280;1680;48.106;11.708;2024-01-06T11:23:45;94586.31;;;5.50;100.00
1832;BME280;1680;48.106;11.708;2024-01-06T11:26:13;94593.69;;;5.53;100.00
1832;BME280;1680;48.106;11.708;2024-01-06T11:28:44;94580.97;;;5.45;100.00
1832;BME280;1680;48.106;11.708;2024-01-06T11:31:13;94578.09;;;5.53;100.00
1832;BME280;1680;48.106;11.708;2024-01-06T11:33:42;94585.03;;;5.59;100.00
1832;BME280;1680;48.106;11.708;2024-01-06T11:36:09;94585.81;;;5.59;100.00
1832;BME280;1680;48.106;11.708;2024-01-06T11:38:39;94587.72;;;5.52;100.00
1832;BME280;1680;48.106;11.708;2024-01-06T11:41:06;94575.31;;;5.48;100.00
1832;BME280;1680;48.106;11.708;2024-01-06T11:43:38;94581.28;;;5.55;100.00
1832;BME280;1680;48.106;11.708;2024-01-06T11:46:06;94556.69;;;5.33;100.00
1832;BME280;1680;48.106;11.708;2024-01-06T11:48:35;94570.44;;;5.58;100.00
1832;BME280;1680;48.106;11.708;2024-01-06T11:51:07;94565.47;;;5.74;100.00
1832;BME280;1680;48.106;11.708;2024-01-06T11:53:34;94583.88;;;5.79;100.00
1832;BME280;1680;48.106;11.708;2024-01-06T11:56:06;94563.72;;;5.50;100.00
1832;BME280;1680;48.106;11.708;2024-01-06T11:58:33;94570.16;;;5.66;100.00
1832;BME280;1680;48.106;11.708;2024-01-06T12:01:01;94559.38;;;5.44;100.00
1832;BME280;1680;48.106;11.708;2024-01-06T12:03:28;94565.38;;;5.45;100.00
1832;BME280;1680;48.106;11.708;2024-01-06T12:06:01;94562.97;;;5.43;100.00
1832;BME280;1680;48.106;11.708;2024-01-06T12:08:29;94555.28;;;5.72;100.00
1832;BME280;1680;48.106;11.708;2024-01-06T12:11:03;94547.34;;;5.68;100.00
1832;BME280;1680;48.106;11.708;2024-01-06T12:13:31;94556.88;;;5.56;100.00
1832;BME280;1680;48.106;11.708;2024-01-06T12:15:58;94533.59;;;5.43;100.00
1832;BME280;1680;48.106;11.708;2024-01-06T12:18:26;94559.25;;;5.57;100.00
1832;BME280;1680;48.106;11.708;2024-01-06T12:20:54;94552.09;;;5.53;100.00
1832;BME280;1680;48.106;11.708;2024-01-06T12:23:26;94548.19;;;5.44;100.00
1832;BME280;1680;48.106;11.708;2024-01-06T12:25:53;94543.75;;;5.26;100.00
1832;BME280;1680;48.106;11.708;2024-01-06T12:28:20;94560.25;;;5.56;100.00
1832;BME280;1680;48.106;11.708;2024-01-06T12:30:48;94553.22;;;5.39;100.00
1832;BME280;1680;48.106;11.708;2024-01-06T12:33:15;94551.44;;;5.39;100.00
1832;BME280;1680;48.106;11.708;2024-01-06T12:35:42;94564.50;;;5.51;100.00
1832;BME280;1680;48.106;11.708;2024-01-06T12:38:10;94559.84;;;5.35;100.00
1832;BME280;1680;48.106;11.708;2024-01-06T12:40:41;94565.59;;;5.19;100.00
1832;BME280;1680;48.106;11.708;2024-01-06T12:43:09;94559.94;;;5.04;100.00
1832;BME280;1680;48.106;11.708;2024-01-06T12:45:36;94563.28;;;5.11;100.00
1832;BME280;1680;48.106;11.708;2024-01-06T12:48:03;94516.41;;;4.75;100.00
1832;BME280;1680;48.106;11.708;2024-01-06T12:50:33;94566.56;;;5.00;100.00
1832;BME280;1680;48.106;11.708;2024-01-06T12:53:00;94558.06;;;4.86;100.00
1832;BME280;1680;48.106;11.708;2024-01-06T12:55:28;94564.09;;;4.80;100.00
1832;BME280;1680;48.106;11.708;2024-01-06T12:57:57;94562.94;;;4.77;100.00
1832;BME280;1680;48.106;11.708;2024-01-06T13:00:26;94567.56;;;4.75;100.00
1832;BME280;1680;48.106;11.708;2024-01-06T13:02:54;94565.63;;;4.88;100.00
1832;BME280;1680;48.106;11.708;2024-01-06T13:05:22;94572.13;;;5.03;100.00
1832;BME280;1680;48.106;11.708;2024-01-06T13:07:49;94569.00;;;4.95;100.00
1832;BME280;1680;48.106;11.708;2024-01-06T13:10:17;94572.97;;;4.97;100.00
1832;BME280;1680;48.106;11.708;2024-01-06T13:12:45;94575.97;;;4.94;100.00
1832;BME280;1680;48.106;11.708;2024-01-06T13:15:14;94583.59;;;4.96;100.00